CMI - University Of Illinois/Willard

Pirep is a free, collaborative database of all public and private airports located within the United States. All pilots are welcome to contribute, edit, and improve any airport they have local knowledge about, no registration required.
Are you familiar with this airport? Help out other pilots by adding your local knowledge.
Uploaded photos will be licensed under a CC BY-SA 4.0 license. Please only upload photos you have the rights to use.
Tags
Public
Undocu­mented
METAR / TAF
Edit Tags
Food
Camping
Lodging
Car Rental
Bicycles
Swimming
Golfing
Fishing
Hot Springs
Museum
Flying Clubs
Airpark
Upcoming Events
No upcoming events. Is anything happening here soon?
*
*
*

Where exactly on/near the airport is this event taking place?

Is there a webpage with more information for this event?

Who should be contacted for more information?

What is this event all about?

Repeat every
Description
Transient Parking
Fuel Location
Landing & Tie-down Fees
Crew Car Availability
Flying Clubs
WiFi Access
Airport Statistics
Location: Champaign/Urbana, IL
Elevation: 754ft
Sectional: Chicago
Activation date: May 1945
Fuel: 100LL, A1+ (prices)
Runway 14L/32R: 8,101ft
Runway 04/22: 6,502ft
Runway 14R/32L: 3,816ft
Access: Open to the public
Current Weather — VFR
  • Weather data is strictly informational and not for flight planning purposes.
  • METAR
    2024-05-24 20:01:00 CDT
    Ceiling Wind Temperature Dewpoint Weather Visbility
    8,000ft 140° @ 10kt 69°F 57°F Rain 10SM
    Clouds: Few @ 5,000ft, Scattered @ 6,000ft, Overcast @ 8,000ft
    Raw: KCMI 250101Z 14010KT 10SM RA FEW050 SCT060 OVC080 21/14 A2981 RMK AO2 WSHFT 0041 LTG DSNT S-NW PRESFR P0002 T02060139
  • TAF
    2024-05-24 19:00:00 CDT – 2024-05-24 22:00:00 CDT
    Ceiling Wind Weather Visbility
    3,500ft Variable Light rain showers, thunderstorm in vicinity 6SM
    Clouds: Broken @ 3,500ft
    Raw: KCMI 242326Z 2500/2524 VRB06KT P6SM -SHRA VCTS BKN035CB TEMPO 2500/2502 4SM TSRA BR BKN025CB FM250300 21008KT P6SM VCSH BKN040 FM250900 34008KT P6SM SCT035 FM251200 VRB05KT P6SM SKC
  • TAF
    2024-05-24 19:00:00 CDT – 2024-05-24 21:00:00 CDT
    Ceiling Wind Weather Visbility
    2,500ft ° @ kt Thunderstorm rain, mist 4SM
    Clouds: Broken @ 2,500ft
    Raw: KCMI 242326Z 2500/2524 VRB06KT P6SM -SHRA VCTS BKN035CB TEMPO 2500/2502 4SM TSRA BR BKN025CB FM250300 21008KT P6SM VCSH BKN040 FM250900 34008KT P6SM SCT035 FM251200 VRB05KT P6SM SKC
  • TAF
    2024-05-24 22:00:00 CDT – 2024-05-25 04:00:00 CDT
    Ceiling Wind Weather Visbility
    4,000ft 210° @ 8kt Showers in vicinity 6SM
    Clouds: Broken @ 4,000ft
    Raw: KCMI 242326Z 2500/2524 VRB06KT P6SM -SHRA VCTS BKN035CB TEMPO 2500/2502 4SM TSRA BR BKN025CB FM250300 21008KT P6SM VCSH BKN040 FM250900 34008KT P6SM SCT035 FM251200 VRB05KT P6SM SKC
  • TAF
    2024-05-25 04:00:00 CDT – 2024-05-25 07:00:00 CDT
    Ceiling Wind Weather Visbility
    Sky clear 340° @ 8kt N/A 6SM
    Clouds: Scattered @ 3,500ft
    Raw: KCMI 242326Z 2500/2524 VRB06KT P6SM -SHRA VCTS BKN035CB TEMPO 2500/2502 4SM TSRA BR BKN025CB FM250300 21008KT P6SM VCSH BKN040 FM250900 34008KT P6SM SCT035 FM251200 VRB05KT P6SM SKC
  • TAF
    2024-05-25 07:00:00 CDT – 2024-05-25 19:00:00 CDT
    Ceiling Wind Weather Visbility
    Sky clear Variable N/A 6SM
    Clouds: @ ft
    Raw: KCMI 242326Z 2500/2524 VRB06KT P6SM -SHRA VCTS BKN035CB TEMPO 2500/2502 4SM TSRA BR BKN025CB FM250300 21008KT P6SM VCSH BKN040 FM250900 34008KT P6SM SCT035 FM251200 VRB05KT P6SM SKC
Click/tap to add an annotation marker to the map
Airport Webcams
No webcams added yet.
Direct links to live image URLs will be displayed inline on this page. URLs to separate webpages will be linked to.
URL:
Direct links to live image URLs will be displayed inline on this page. URLs to separate webpages will be linked to.
URL:
Remarks
  • Tsnt prkg on se ga apn only.
  • Birds on & invof arpt.
  • Twy a5 & c1 sw of rwy 14l/32r clsd to acft ovr 11800 lbs.
  • Twy a6 & a7 adj to air carrier apron not vsb fm the atct.
  • Aer 22 & 32r not vsb fm each other.
Comments
Leave a comment What was your experience like at this airport?